sensor_id;sensor_type;location;lat;lon;timestamp;pressure;altitude;pressure_sealevel;temperature;humidity
77017;BME280;65949;53.132;17.930;2023-11-21T00:00:22;100513.48;;;0.55;99.96
77017;BME280;65949;53.132;17.930;2023-11-21T00:03:08;100512.14;;;0.55;99.99
77017;BME280;65949;53.132;17.930;2023-11-21T00:05:37;100510.64;;;0.55;100.00
77017;BME280;65949;53.132;17.930;2023-11-21T00:08:05;100516.64;;;0.55;99.97
77017;BME280;65949;53.132;17.930;2023-11-21T00:10:31;100517.86;;;0.54;99.98
77017;BME280;65949;53.132;17.930;2023-11-21T00:12:58;100518.92;;;0.54;100.00
77017;BME280;65949;53.132;17.930;2023-11-21T00:15:25;100524.16;;;0.52;100.00
77017;BME280;65949;53.132;17.930;2023-11-21T00:17:52;100528.13;;;0.51;100.00
77017;BME280;65949;53.132;17.930;2023-11-21T00:20:19;100530.13;;;0.52;100.00
77017;BME280;65949;53.132;17.930;2023-11-21T00:22:47;100535.55;;;0.52;100.00
77017;BME280;65949;53.132;17.930;2023-11-21T00:25:14;100536.20;;;0.52;100.00
77017;BME280;65949;53.132;17.930;2023-11-21T00:27:42;100535.20;;;0.52;100.00
77017;BME280;65949;53.132;17.930;2023-11-21T00:30:09;100533.19;;;0.50;100.00
77017;BME280;65949;53.132;17.930;2023-11-21T00:32:37;100534.33;;;0.50;100.00
77017;BME280;65949;53.132;17.930;2023-11-21T00:35:04;100534.60;;;0.49;100.00
77017;BME280;65949;53.132;17.930;2023-11-21T00:37:32;100535.44;;;0.51;100.00
77017;BME280;65949;53.132;17.930;2023-11-21T00:39:58;100540.08;;;0.49;100.00
77017;BME280;65949;53.132;17.930;2023-11-21T00:42:25;100543.29;;;0.49;100.00
77017;BME280;65949;53.132;17.930;2023-11-21T00:44:51;100547.39;;;0.52;100.00
77017;BME280;65949;53.132;17.930;2023-11-21T00:47:18;100551.80;;;0.56;100.00
77017;BME280;65949;53.132;17.930;2023-11-21T00:49:45;100558.08;;;0.59;100.00
77017;BME280;65949;53.132;17.930;2023-11-21T00:52:11;100560.98;;;0.62;100.00
77017;BME280;65949;53.132;17.930;2023-11-21T00:54:38;100562.77;;;0.65;100.00
77017;BME280;65949;53.132;17.930;2023-11-21T00:57:05;100563.38;;;0.69;100.00
77017;BME280;65949;53.132;17.930;2023-11-21T00:59:31;100563.16;;;0.72;99.98
77017;BME280;65949;53.132;17.930;2023-11-21T01:01:58;100565.29;;;0.74;99.64
77017;BME280;65949;53.132;17.930;2023-11-21T01:04:27;100567.95;;;0.76;99.57
77017;BME280;65949;53.132;17.930;2023-11-21T01:06:54;100568.46;;;0.77;99.16
77017;BME280;65949;53.132;17.930;2023-11-21T01:09:21;100573.29;;;0.78;99.25
77017;BME280;65949;53.132;17.930;2023-11-21T01:11:48;100579.70;;;0.80;98.94
77017;BME280;65949;53.132;17.930;2023-11-21T01:14:14;100577.29;;;0.80;98.40
77017;BME280;65949;53.132;17.930;2023-11-21T01:16:41;100578.19;;;0.79;97.93
77017;BME280;65949;53.132;17.930;2023-11-21T01:19:08;100580.39;;;0.76;97.47
77017;BME280;65949;53.132;17.930;2023-11-21T01:21:35;100586.02;;;0.75;97.78
77017;BME280;65949;53.132;17.930;2023-11-21T01:24:03;100589.10;;;0.75;97.46
77017;BME280;65949;53.132;17.930;2023-11-21T01:26:31;100588.49;;;0.72;96.96
77017;BME280;65949;53.132;17.930;2023-11-21T01:28:58;100593.50;;;0.70;97.28
77017;BME280;65949;53.132;17.930;2023-11-21T01:31:25;100592.84;;;0.71;97.45
77017;BME280;65949;53.132;17.930;2023-11-21T01:33:56;100589.75;;;0.71;97.23
77017;BME280;65949;53.132;17.930;2023-11-21T01:36:22;100589.46;;;0.69;97.09
77017;BME280;65949;53.132;17.930;2023-11-21T01:38:49;100593.55;;;0.67;97.02
77017;BME280;65949;53.132;17.930;2023-11-21T01:41:16;100593.34;;;0.64;97.26
77017;BME280;65949;53.132;17.930;2023-11-21T01:43:43;100593.52;;;0.63;97.52
77017;BME280;65949;53.132;17.930;2023-11-21T01:46:10;100595.98;;;0.64;97.79
77017;BME280;65949;53.132;17.930;2023-11-21T01:48:36;100603.59;;;0.63;97.39
77017;BME280;65949;53.132;17.930;2023-11-21T01:51:05;100609.90;;;0.63;97.63
77017;BME280;65949;53.132;17.930;2023-11-21T01:53:32;100610.07;;;0.64;97.58
77017;BME280;65949;53.132;17.930;2023-11-21T01:55:59;100615.16;;;0.65;97.20
77017;BME280;65949;53.132;17.930;2023-11-21T01:58:26;100612.84;;;0.64;97.15
77017;BME280;65949;53.132;17.930;2023-11-21T02:00:53;100616.33;;;0.62;96.65
77017;BME280;65949;53.132;17.930;2023-11-21T02:03:21;100614.48;;;0.57;96.01
77017;BME280;65949;53.132;17.930;2023-11-21T02:05:48;100616.19;;;0.53;95.99
77017;BME280;65949;53.132;17.930;2023-11-21T02:08:15;100611.86;;;0.49;95.93
77017;BME280;65949;53.132;17.930;2023-11-21T02:10:43;100617.95;;;0.45;95.46
77017;BME280;65949;53.132;17.930;2023-11-21T02:13:10;100618.24;;;0.42;96.06
77017;BME280;65949;53.132;17.930;2023-11-21T02:15:38;100622.89;;;0.40;96.28
77017;BME280;65949;53.132;17.930;2023-11-21T02:18:05;100621.59;;;0.41;96.22
77017;BME280;65949;53.132;17.930;2023-11-21T02:20:32;100619.79;;;0.42;95.75
77017;BME280;65949;53.132;17.930;2023-11-21T02:23:01;100617.03;;;0.43;96.20
77017;BME280;65949;53.132;17.930;2023-11-21T02:25:30;100619.12;;;0.43;95.79
77017;BME280;65949;53.132;17.930;2023-11-21T02:27:59;100621.02;;;0.43;95.85
77017;BME280;65949;53.132;17.930;2023-11-21T02:30:27;100624.80;;;0.42;96.07
77017;BME280;65949;53.132;17.930;2023-11-21T02:32:54;100625.42;;;0.41;95.78
77017;BME280;65949;53.132;17.930;2023-11-21T02:35:23;100626.36;;;0.40;96.01
77017;BME280;65949;53.132;17.930;2023-11-21T02:37:53;100633.45;;;0.39;96.51
77017;BME280;65949;53.132;17.930;2023-11-21T02:40:20;100630.48;;;0.37;96.34
77017;BME280;65949;53.132;17.930;2023-11-21T02:42:47;100634.22;;;0.35;96.53
77017;BME280;65949;53.132;17.930;2023-11-21T02:45:14;100631.58;;;0.35;96.84
77017;BME280;65949;53.132;17.930;2023-11-21T02:47:43;100634.25;;;0.34;96.89
77017;BME280;65949;53.132;17.930;2023-11-21T02:50:10;100638.81;;;0.34;96.89
77017;BME280;65949;53.132;17.930;2023-11-21T02:52:37;100643.60;;;0.34;97.07
77017;BME280;65949;53.132;17.930;2023-11-21T02:55:06;100643.42;;;0.33;96.33
77017;BME280;65949;53.132;17.930;2023-11-21T02:57:33;100646.48;;;0.30;96.29
77017;BME280;65949;53.132;17.930;2023-11-21T03:00:00;100652.81;;;0.28;95.63
77017;BME280;65949;53.132;17.930;2023-11-21T03:02:27;100652.70;;;0.23;95.36
77017;BME280;65949;53.132;17.930;2023-11-21T03:04:54;100655.66;;;0.21;95.18
77017;BME280;65949;53.132;17.930;2023-11-21T03:07:20;100655.20;;;0.18;94.18
77017;BME280;65949;53.132;17.930;2023-11-21T03:09:48;100659.81;;;0.16;94.48
77017;BME280;65949;53.132;17.930;2023-11-21T03:12:15;100662.84;;;0.17;94.63
77017;BME280;65949;53.132;17.930;2023-11-21T03:14:42;100659.38;;;0.16;94.05
77017;BME280;65949;53.132;17.930;2023-11-21T03:17:09;100664.07;;;0.15;94.31
77017;BME280;65949;53.132;17.930;2023-11-21T03:19:35;100671.05;;;0.16;94.79
77017;BME280;65949;53.132;17.930;2023-11-21T03:22:02;100672.33;;;0.17;94.57
77017;BME280;65949;53.132;17.930;2023-11-21T03:24:30;100671.73;;;0.18;94.72
77017;BME280;65949;53.132;17.930;2023-11-21T03:26:57;100672.30;;;0.19;94.80
77017;BME280;65949;53.132;17.930;2023-11-21T03:29:23;100674.89;;;0.22;95.08
77017;BME280;65949;53.132;17.930;2023-11-21T03:31:50;100677.97;;;0.24;95.00
77017;BME280;65949;53.132;17.930;2023-11-21T03:34:27;100681.25;;;0.24;94.46
77017;BME280;65949;53.132;17.930;2023-11-21T03:36:55;100685.06;;;0.24;94.69
77017;BME280;65949;53.132;17.930;2023-11-21T03:39:22;100687.67;;;0.23;94.33
77017;BME280;65949;53.132;17.930;2023-11-21T03:41:49;100693.15;;;0.23;94.63
77017;BME280;65949;53.132;17.930;2023-11-21T03:44:16;100689.17;;;0.25;94.48
77017;BME280;65949;53.132;17.930;2023-11-21T03:46:45;100688.00;;;0.25;93.47
77017;BME280;65949;53.132;17.930;2023-11-21T03:49:12;100687.64;;;0.25;93.41
77017;BME280;65949;53.132;17.930;2023-11-21T03:51:39;100683.84;;;0.22;92.96
77017;BME280;65949;53.132;17.930;2023-11-21T03:54:06;100681.54;;;0.20;92.58
77017;BME280;65949;53.132;17.930;2023-11-21T03:56:32;100683.46;;;0.20;93.22
77017;BME280;65949;53.132;17.930;2023-11-21T03:59:00;100680.34;;;0.19;92.64
77017;BME280;65949;53.132;17.930;2023-11-21T04:01:27;100679.47;;;0.19;92.89
77017;BME280;65949;53.132;17.930;2023-11-21T04:03:53;100683.69;;;0.19;92.89
77017;BME280;65949;53.132;17.930;2023-11-21T04:06:20;100688.59;;;0.16;92.51
77017;BME280;65949;53.132;17.930;2023-11-21T04:08:46;100693.32;;;0.12;92.63
77017;BME280;65949;53.132;17.930;2023-11-21T04:11:13;100695.98;;;0.11;92.69
77017;BME280;65949;53.132;17.930;2023-11-21T04:13:40;100701.92;;;0.08;92.37
77017;BME280;65949;53.132;17.930;2023-11-21T04:16:08;100706.28;;;0.06;92.74
77017;BME280;65949;53.132;17.930;2023-11-21T04:18:38;100710.23;;;0.08;93.34
77017;BME280;65949;53.132;17.930;2023-11-21T04:21:06;100716.32;;;0.09;92.65
77017;BME280;65949;53.132;17.930;2023-11-21T04:23:32;100709.55;;;0.06;91.89
77017;BME280;65949;53.132;17.930;2023-11-21T04:26:00;100714.09;;;0.02;91.81
77017;BME280;65949;53.132;17.930;2023-11-21T04:28:28;100714.23;;;-0.00;91.91
77017;BME280;65949;53.132;17.930;2023-11-21T04:30:55;100719.30;;;-0.01;92.18
77017;BME280;65949;53.132;17.930;2023-11-21T04:33:21;100720.38;;;-0.03;91.83
77017;BME280;65949;53.132;17.930;2023-11-21T04:35:48;100721.79;;;-0.08;92.15
77017;BME280;65949;53.132;17.930;2023-11-21T04:38:15;100721.79;;;-0.11;92.68
77017;BME280;65949;53.132;17.930;2023-11-21T04:40:42;100722.73;;;-0.13;92.87
77017;BME280;65949;53.132;17.930;2023-11-21T04:43:08;100727.85;;;-0.16;92.87
77017;BME280;65949;53.132;17.930;2023-11-21T04:45:35;100726.95;;;-0.23;91.07
77017;BME280;65949;53.132;17.930;2023-11-21T04:48:01;100732.14;;;-0.30;91.34
77017;BME280;65949;53.132;17.930;2023-11-21T04:50:28;100739.03;;;-0.33;91.64
77017;BME280;65949;53.132;17.930;2023-11-21T04:52:55;100742.90;;;-0.36;91.50
77017;BME280;65949;53.132;17.930;2023-11-21T04:55:21;100750.94;;;-0.33;92.01
77017;BME280;65949;53.132;17.930;2023-11-21T04:57:48;100757.39;;;-0.31;92.12
77017;BME280;65949;53.132;17.930;2023-11-21T05:00:15;100759.77;;;-0.29;92.43
77017;BME280;65949;53.132;17.930;2023-11-21T05:02:42;100763.77;;;-0.28;91.39
77017;BME280;65949;53.132;17.930;2023-11-21T05:05:10;100767.96;;;-0.30;89.89
77017;BME280;65949;53.132;17.930;2023-11-21T05:07:41;100771.90;;;-0.30;90.31
77017;BME280;65949;53.132;17.930;2023-11-21T05:10:09;100773.52;;;-0.29;90.32
77017;BME280;65949;53.132;17.930;2023-11-21T05:12:40;100773.73;;;-0.28;90.15
77017;BME280;65949;53.132;17.930;2023-11-21T05:15:08;100772.74;;;-0.28;89.69
77017;BME280;65949;53.132;17.930;2023-11-21T05:17:38;100771.58;;;-0.30;90.04
77017;BME280;65949;53.132;17.930;2023-11-21T05:20:10;100769.62;;;-0.32;89.90
77017;BME280;65949;53.132;17.930;2023-11-21T05:22:37;100774.27;;;-0.31;90.59
77017;BME280;65949;53.132;17.930;2023-11-21T05:25:05;100775.16;;;-0.28;90.87
77017;BME280;65949;53.132;17.930;2023-11-21T05:27:35;100775.40;;;-0.26;90.94
77017;BME280;65949;53.132;17.930;2023-11-21T05:30:03;100779.59;;;-0.26;90.45
77017;BME280;65949;53.132;17.930;2023-11-21T05:32:34;100787.50;;;-0.28;90.07
77017;BME280;65949;53.132;17.930;2023-11-21T05:35:01;100793.63;;;-0.27;90.76
77017;BME280;65949;53.132;17.930;2023-11-21T05:37:28;100794.68;;;-0.25;90.73
77017;BME280;65949;53.132;17.930;2023-11-21T05:39:55;100800.63;;;-0.22;90.83
77017;BME280;65949;53.132;17.930;2023-11-21T05:42:26;100802.43;;;-0.21;90.29
77017;BME280;65949;53.132;17.930;2023-11-21T05:44:53;100806.84;;;-0.24;90.03
77017;BME280;65949;53.132;17.930;2023-11-21T05:47:20;100811.92;;;-0.26;90.52
77017;BME280;65949;53.132;17.930;2023-11-21T05:49:48;100814.95;;;-0.26;91.07
77017;BME280;65949;53.132;17.930;2023-11-21T05:52:17;100812.20;;;-0.26;91.30
77017;BME280;65949;53.132;17.930;2023-11-21T05:54:44;100814.98;;;-0.28;91.44
77017;BME280;65949;53.132;17.930;2023-11-21T05:57:11;100823.15;;;-0.29;91.72
77017;BME280;65949;53.132;17.930;2023-11-21T05:59:37;100823.48;;;-0.27;91.52
77017;BME280;65949;53.132;17.930;2023-11-21T06:02:04;100828.73;;;-0.28;91.08
77017;BME280;65949;53.132;17.930;2023-11-21T06:04:31;100833.27;;;-0.29;91.33
77017;BME280;65949;53.132;17.930;2023-11-21T06:06:58;100838.20;;;-0.29;91.33
77017;BME280;65949;53.132;17.930;2023-11-21T06:09:25;100844.13;;;-0.29;91.18
77017;BME280;65949;53.132;17.930;2023-11-21T06:11:51;100844.65;;;-0.27;91.23
77017;BME280;65949;53.132;17.930;2023-11-21T06:14:18;100849.84;;;-0.25;90.81
77017;BME280;65949;53.132;17.930;2023-11-21T06:16:44;100852.33;;;-0.27;89.89
77017;BME280;65949;53.132;17.930;2023-11-21T06:19:12;100856.36;;;-0.30;89.81
77017;BME280;65949;53.132;17.930;2023-11-21T06:21:38;100862.09;;;-0.32;89.42
77017;BME280;65949;53.132;17.930;2023-11-21T06:24:05;100866.08;;;-0.33;89.56
77017;BME280;65949;53.132;17.930;2023-11-21T06:26:32;100878.15;;;-0.33;89.92
77017;BME280;65949;53.132;17.930;2023-11-21T06:28:59;100882.94;;;-0.31;89.59
77017;BME280;65949;53.132;17.930;2023-11-21T06:31:27;100887.02;;;-0.32;88.54
77017;BME280;65949;53.132;17.930;2023-11-21T06:33:53;100888.75;;;-0.35;88.53
77017;BME280;65949;53.132;17.930;2023-11-21T06:36:20;100890.70;;;-0.36;88.59
77017;BME280;65949;53.132;17.930;2023-11-21T06:38:47;100895.22;;;-0.35;87.91
77017;BME280;65949;53.132;17.930;2023-11-21T06:41:13;100902.23;;;-0.35;88.51
77017;BME280;65949;53.132;17.930;2023-11-21T06:43:41;100902.17;;;-0.33;87.88
77017;BME280;65949;53.132;17.930;2023-11-21T06:46:13;100899.62;;;-0.33;88.04
77017;BME280;65949;53.132;17.930;2023-11-21T06:48:42;100905.95;;;-0.30;88.39
77017;BME280;65949;53.132;17.930;2023-11-21T06:51:09;100902.75;;;-0.29;88.03
77017;BME280;65949;53.132;17.930;2023-11-21T06:53:37;100910.04;;;-0.29;88.27
77017;BME280;65949;53.132;17.930;2023-11-21T06:56:04;100913.43;;;-0.29;88.44
77017;BME280;65949;53.132;17.930;2023-11-21T06:58:33;100918.59;;;-0.29;88.04
77017;BME280;65949;53.132;17.930;2023-11-21T07:01:00;100924.69;;;-0.31;88.27
77017;BME280;65949;53.132;17.930;2023-11-21T07:03:26;100931.89;;;-0.33;88.58
77017;BME280;65949;53.132;17.930;2023-11-21T07:05:53;100929.79;;;-0.34;88.44
77017;BME280;65949;53.132;17.930;2023-11-21T07:08:19;100939.34;;;-0.37;88.22
77017;BME280;65949;53.132;17.930;2023-11-21T07:10:46;100942.08;;;-0.41;87.31
77017;BME280;65949;53.132;17.930;2023-11-21T07:13:13;100941.05;;;-0.46;86.95
77017;BME280;65949;53.132;17.930;2023-11-21T07:15:40;100942.34;;;-0.50;86.89
77017;BME280;65949;53.132;17.930;2023-11-21T07:18:07;100946.95;;;-0.51;87.00
77017;BME280;65949;53.132;17.930;2023-11-21T07:20:34;100953.06;;;-0.51;87.39
77017;BME280;65949;53.132;17.930;2023-11-21T07:23:00;100953.92;;;-0.49;88.28
77017;BME280;65949;53.132;17.930;2023-11-21T07:25:27;100954.98;;;-0.47;88.74
77017;BME280;65949;53.132;17.930;2023-11-21T07:27:54;100956.42;;;-0.46;88.05
77017;BME280;65949;53.132;17.930;2023-11-21T07:30:21;100962.22;;;-0.47;86.62
77017;BME280;65949;53.132;17.930;2023-11-21T07:32:49;100961.91;;;-0.47;87.03
77017;BME280;65949;53.132;17.930;2023-11-21T07:35:15;100962.81;;;-0.48;85.89
77017;BME280;65949;53.132;17.930;2023-11-21T07:37:42;100967.33;;;-0.49;85.21
77017;BME280;65949;53.132;17.930;2023-11-21T07:40:10;100969.80;;;-0.51;85.02
77017;BME280;65949;53.132;17.930;2023-11-21T07:42:37;100977.09;;;-0.51;84.94
77017;BME280;65949;53.132;17.930;2023-11-21T07:45:05;100974.92;;;-0.49;84.72
77017;BME280;65949;53.132;17.930;2023-11-21T07:47:33;100970.14;;;-0.45;85.15
77017;BME280;65949;53.132;17.930;2023-11-21T07:50:02;100968.15;;;-0.41;84.52
77017;BME280;65949;53.132;17.930;2023-11-21T07:52:30;100969.80;;;-0.39;84.54
77017;BME280;65949;53.132;17.930;2023-11-21T07:54:56;100971.88;;;-0.37;84.37
77017;BME280;65949;53.132;17.930;2023-11-21T07:57:23;100979.48;;;-0.34;84.43
77017;BME280;65949;53.132;17.930;2023-11-21T07:59:50;100980.75;;;-0.32;83.98
77017;BME280;65949;53.132;17.930;2023-11-21T08:02:16;100977.23;;;-0.29;83.45
77017;BME280;65949;53.132;17.930;2023-11-21T08:04:44;100975.44;;;-0.26;83.25
77017;BME280;65949;53.132;17.930;2023-11-21T08:07:11;100981.90;;;-0.20;83.96
77017;BME280;65949;53.132;17.930;2023-11-21T08:09:37;100982.44;;;-0.14;83.37
77017;BME280;65949;53.132;17.930;2023-11-21T08:12:04;100978.86;;;-0.08;83.39
77017;BME280;65949;53.132;17.930;2023-11-21T08:14:31;100982.50;;;-0.04;82.01
77017;BME280;65949;53.132;17.930;2023-11-21T08:16:58;100993.16;;;-0.01;81.95
77017;BME280;65949;53.132;17.930;2023-11-21T08:19:25;100993.08;;;-0.01;80.99
77017;BME280;65949;53.132;17.930;2023-11-21T08:21:52;100993.64;;;-0.00;81.40
77017;BME280;65949;53.132;17.930;2023-11-21T08:24:21;100993.98;;;0.01;81.39
77017;BME280;65949;53.132;17.930;2023-11-21T08:26:48;100990.23;;;0.01;80.29
77017;BME280;65949;53.132;17.930;2023-11-21T08:29:16;100986.78;;;0.00;79.25
77017;BME280;65949;53.132;17.930;2023-11-21T08:31:43;100993.80;;;0.03;80.47
77017;BME280;65949;53.132;17.930;2023-11-21T08:34:13;100989.58;;;0.05;79.15
77017;BME280;65949;53.132;17.930;2023-11-21T08:36:42;100989.85;;;0.08;78.87
77017;BME280;65949;53.132;17.930;2023-11-21T08:39:09;100991.48;;;0.08;78.42
77017;BME280;65949;53.132;17.930;2023-11-21T08:41:36;100995.91;;;0.10;77.54
77017;BME280;65949;53.132;17.930;2023-11-21T08:44:03;100996.58;;;0.13;78.22
77017;BME280;65949;53.132;17.930;2023-11-21T08:46:33;100993.23;;;0.17;77.01
77017;BME280;65949;53.132;17.930;2023-11-21T08:49:03;101000.67;;;0.21;76.93
77017;BME280;65949;53.132;17.930;2023-11-21T08:51:30;100997.12;;;0.29;78.02
77017;BME280;65949;53.132;17.930;2023-11-21T08:53:56;100992.34;;;0.37;78.21
77017;BME280;65949;53.132;17.930;2023-11-21T08:56:26;100996.49;;;0.41;76.82
77017;BME280;65949;53.132;17.930;2023-11-21T08:58:53;101002.16;;;0.44;76.87
77017;BME280;65949;53.132;17.930;2023-11-21T09:01:20;101002.38;;;0.42;76.14
77017;BME280;65949;53.132;17.930;2023-11-21T09:03:47;101007.02;;;0.40;76.25
77017;BME280;65949;53.132;17.930;2023-11-21T09:06:14;101016.70;;;0.38;76.21
77017;BME280;65949;53.132;17.930;2023-11-21T09:08:41;101022.36;;;0.38;76.36
77017;BME280;65949;53.132;17.930;2023-11-21T09:11:08;101017.94;;;0.38;76.53
77017;BME280;65949;53.132;17.930;2023-11-21T09:13:35;101018.25;;;0.37;75.62
77017;BME280;65949;53.132;17.930;2023-11-21T09:16:03;101024.09;;;0.35;75.51
77017;BME280;65949;53.132;17.930;2023-11-21T09:18:29;101027.13;;;0.38;76.40
77017;BME280;65949;53.132;17.930;2023-11-21T09:20:57;101022.19;;;0.39;76.04
77017;BME280;65949;53.132;17.930;2023-11-21T09:23:24;101031.47;;;0.41;76.11
77017;BME280;65949;53.132;17.930;2023-11-21T09:25:51;101032.42;;;0.44;76.01
77017;BME280;65949;53.132;17.930;2023-11-21T09:28:18;101031.44;;;0.47;75.76
77017;BME280;65949;53.132;17.930;2023-11-21T09:30:44;101033.42;;;0.47;75.34
77017;BME280;65949;53.132;17.930;2023-11-21T09:33:11;101036.56;;;0.49;75.41
77017;BME280;65949;53.132;17.930;2023-11-21T09:35:38;101038.44;;;0.51;74.99
77017;BME280;65949;53.132;17.930;2023-11-21T09:38:04;101049.52;;;0.53;74.97
77017;BME280;65949;53.132;17.930;2023-11-21T09:40:37;101045.95;;;0.50;74.65
77017;BME280;65949;53.132;17.930;2023-11-21T09:43:30;101054.38;;;0.46;74.42
77017;BME280;65949;53.132;17.930;2023-11-21T09:46:00;101059.48;;;0.49;75.15
77017;BME280;65949;53.132;17.930;2023-11-21T09:48:30;101056.13;;;0.52;75.39
77017;BME280;65949;53.132;17.930;2023-11-21T09:50:58;101055.37;;;0.52;74.84
77017;BME280;65949;53.132;17.930;2023-11-21T09:53:27;101052.62;;;0.50;74.38
77017;BME280;65949;53.132;17.930;2023-11-21T09:55:58;101053.35;;;0.48;74.55
77017;BME280;65949;53.132;17.930;2023-11-21T09:58:27;101062.61;;;0.50;75.48
77017;BME280;65949;53.132;17.930;2023-11-21T10:00:55;101059.91;;;0.54;75.65
77017;BME280;65949;53.132;17.930;2023-11-21T10:03:23;101059.33;;;0.52;74.85
77017;BME280;65949;53.132;17.930;2023-11-21T10:05:52;101054.73;;;0.49;75.37
77017;BME280;65949;53.132;17.930;2023-11-21T10:08:21;101053.71;;;0.50;75.66
77017;BME280;65949;53.132;17.930;2023-11-21T10:10:53;101052.24;;;0.54;75.52
77017;BME280;65949;53.132;17.930;2023-11-21T10:13:20;101057.08;;;0.55;75.68
77017;BME280;65949;53.132;17.930;2023-11-21T10:15:51;101058.55;;;0.50;75.78
77017;BME280;65949;53.132;17.930;2023-11-21T10:18:18;101062.79;;;0.52;76.35
77017;BME280;65949;53.132;17.930;2023-11-21T10:20:45;101063.66;;;0.52;76.15
77017;BME280;65949;53.132;17.930;2023-11-21T10:23:22;101066.97;;;0.51;76.54
77017;BME280;65949;53.132;17.930;2023-11-21T10:25:50;101066.73;;;0.49;76.64
77017;BME280;65949;53.132;17.930;2023-11-21T10:28:18;101074.52;;;0.44;75.85
77017;BME280;65949;53.132;17.930;2023-11-21T10:30:45;101078.63;;;0.39;75.82
77017;BME280;65949;53.132;17.930;2023-11-21T10:33:12;101077.14;;;0.35;75.08
77017;BME280;65949;53.132;17.930;2023-11-21T10:35:45;101079.45;;;0.31;75.62
77017;BME280;65949;53.132;17.930;2023-11-21T10:38:21;101081.45;;;0.33;75.71
77017;BME280;65949;53.132;17.930;2023-11-21T10:40:50;101089.63;;;0.34;76.05
77017;BME280;65949;53.132;17.930;2023-11-21T10:43:17;101090.59;;;0.38;76.55
77017;BME280;65949;53.132;17.930;2023-11-21T10:45:45;101093.32;;;0.41;76.39
77017;BME280;65949;53.132;17.930;2023-11-21T10:48:15;101095.50;;;0.44;75.66
77017;BME280;65949;53.132;17.930;2023-11-21T10:50:46;101095.59;;;0.39;75.15
77017;BME280;65949;53.132;17.930;2023-11-21T10:53:13;101095.48;;;0.35;75.29
77017;BME280;65949;53.132;17.930;2023-11-21T10:55:40;101094.40;;;0.36;75.53
77017;BME280;65949;53.132;17.930;2023-11-21T10:58:07;101094.61;;;0.40;75.86
77017;BME280;65949;53.132;17.930;2023-11-21T11:00:37;101093.10;;;0.41;75.16
77017;BME280;65949;53.132;17.930;2023-11-21T11:03:06;101093.07;;;0.43;75.10
77017;BME280;65949;53.132;17.930;2023-11-21T11:05:40;101096.53;;;0.47;75.13
77017;BME280;65949;53.132;17.930;2023-11-21T11:08:12;101094.63;;;0.51;75.96
77017;BME280;65949;53.132;17.930;2023-11-21T11:10:39;101100.52;;;0.57;75.78
77017;BME280;65949;53.132;17.930;2023-11-21T11:13:06;101103.13;;;0.61;75.92
77017;BME280;65949;53.132;17.930;2023-11-21T11:15:34;101105.19;;;0.65;76.43
77017;BME280;65949;53.132;17.930;2023-11-21T11:18:02;101108.69;;;0.64;75.48
77017;BME280;65949;53.132;17.930;2023-11-21T11:20:34;101113.63;;;0.64;76.11
77017;BME280;65949;53.132;17.930;2023-11-21T11:26:07;101122.19;;;0.62;75.95
77017;BME280;65949;53.132;17.930;2023-11-21T11:28:54;101124.58;;;0.56;75.96
77017;BME280;65949;53.132;17.930;2023-11-21T11:31:36;101128.92;;;0.51;76.07
77017;BME280;65949;53.132;17.930;2023-11-21T11:34:19;101138.40;;;0.50;76.43
77017;BME280;65949;53.132;17.930;2023-11-21T11:37:05;101143.17;;;0.47;75.86
77017;BME280;65949;53.132;17.930;2023-11-21T11:39:39;101150.80;;;0.46;76.19
77017;BME280;65949;53.132;17.930;2023-11-21T11:42:12;101157.99;;;0.45;75.42
77017;BME280;65949;53.132;17.930;2023-11-21T11:47:27;101166.85;;;0.41;74.80
77017;BME280;65949;53.132;17.930;2023-11-21T11:50:03;101168.31;;;0.34;73.91
77017;BME280;65949;53.132;17.930;2023-11-21T11:52:34;101167.45;;;0.29;73.78
77017;BME280;65949;53.132;17.930;2023-11-21T11:55:03;101169.08;;;0.24;73.95
77017;BME280;65949;53.132;17.930;2023-11-21T11:57:34;101169.50;;;0.26;74.69
77017;BME280;65949;53.132;17.930;2023-11-21T12:00:12;101172.90;;;0.25;74.56
77017;BME280;65949;53.132;17.930;2023-11-21T12:02:49;101168.73;;;0.25;74.86
77017;BME280;65949;53.132;17.930;2023-11-21T12:05:26;101167.33;;;0.26;75.11
77017;BME280;65949;53.132;17.930;2023-11-21T12:07:57;101169.27;;;0.27;75.20
77017;BME280;65949;53.132;17.930;2023-11-21T12:10:29;101167.66;;;0.26;74.85
77017;BME280;65949;53.132;17.930;2023-11-21T12:12:57;101171.79;;;0.26;75.26
77017;BME280;65949;53.132;17.930;2023-11-21T12:15:25;101172.64;;;0.26;75.28
77017;BME280;65949;53.132;17.930;2023-11-21T12:17:52;101177.05;;;0.28;75.88
77017;BME280;65949;53.132;17.930;2023-11-21T12:20:20;101178.30;;;0.32;76.24
77017;BME280;65949;53.132;17.930;2023-11-21T12:22:51;101177.55;;;0.32;75.36
77017;BME280;65949;53.132;17.930;2023-11-21T12:25:19;101177.02;;;0.26;75.01
77017;BME280;65949;53.132;17.930;2023-11-21T12:27:48;101174.15;;;0.22;74.96
77017;BME280;65949;53.132;17.930;2023-11-21T12:30:18;101172.60;;;0.20;75.77
77017;BME280;65949;53.132;17.930;2023-11-21T12:32:48;101176.95;;;0.21;75.42
77017;BME280;65949;53.132;17.930;2023-11-21T12:35:17;101174.77;;;0.19;75.03
77017;BME280;65949;53.132;17.930;2023-11-21T12:37:46;101175.42;;;0.18;75.51
77017;BME280;65949;53.132;17.930;2023-11-21T12:40:14;101179.15;;;0.17;75.75
77017;BME280;65949;53.132;17.930;2023-11-21T12:42:54;101182.41;;;0.17;75.73
77017;BME280;65949;53.132;17.930;2023-11-21T12:45:26;101182.30;;;0.16;75.89
77017;BME280;65949;53.132;17.930;2023-11-21T12:47:59;101188.92;;;0.18;76.12
77017;BME280;65949;53.132;17.930;2023-11-21T12:50:30;101196.13;;;0.22;76.38
77017;BME280;65949;53.132;17.930;2023-11-21T12:53:02;101199.25;;;0.23;75.79
77017;BME280;65949;53.132;17.930;2023-11-21T12:55:31;101203.56;;;0.20;75.33